Time;durP1;ratioP1;P1;durP2;ratioP2;P2;SDS_P1;SDS_P2;PMS_P1;PMS_P2;Temp;Humidity;BMP_temperature;BMP_pressure;BME280_temperature;BME280_humidity;BME280_pressure;Samples;Min_cycle;Max_cycle;Signal;HPM_P1;HPM_P2
2022/12/13 00:00:32;;;;;;;;;;;;;;;-4.10;82.35;101220.44;5076906;28;19935;-64
2022/12/13 00:02:57;;;;;;;;;;;;;;;-4.11;82.39;101213.56;5087420;28;19951;-64
2022/12/13 00:05:22;;;;;;;;;;;;;;;-4.13;82.51;101211.94;5086788;28;19916;-65
2022/12/13 00:07:48;;;;;;;;;;;;;;;-4.15;82.46;101208.56;5087195;28;19927;-64
2022/12/13 00:10:13;;;;;;;;;;;;;;;-4.14;82.43;101218.03;5082301;28;20023;-64
2022/12/13 00:12:38;;;;;;;;;;;;;;;-4.14;82.59;101210.25;5084911;28;19924;-65
2022/12/13 00:15:04;;;;;;;;;;;;;;;-4.18;82.56;101206.97;5084073;28;20011;-64
2022/12/13 00:17:30;;;;;;;;;;;;;;;-4.20;82.46;101203.59;5085625;28;19966;-64
2022/12/13 00:19:55;;;;;;;;;;;;;;;-4.23;82.59;101208.91;5085520;28;20390;-64
2022/12/13 00:22:20;;;;;;;;;;;;;;;-4.23;82.59;101205.50;5096553;28;19916;-64
2022/12/13 00:24:46;;;;;;;;;;;;;;;-4.21;82.67;101206.25;5082878;28;19983;-63
2022/12/13 00:27:11;;;;;;;;;;;;;;;-4.19;82.71;101201.84;5087413;28;20426;-65
2022/12/13 00:29:36;;;;;;;;;;;;;;;-4.21;82.80;101203.66;5082194;28;19916;-63
2022/12/13 00:32:02;;;;;;;;;;;;;;;-4.24;82.79;101207.25;5088245;28;19925;-65
2022/12/13 00:34:27;;;;;;;;;;;;;;;-4.28;82.85;101203.09;5084901;28;19927;-64
2022/12/13 00:36:53;;;;;;;;;;;;;;;-4.32;82.85;101200.72;5085349;28;19924;-64
2022/12/13 00:39:18;;;;;;;;;;;;;;;-4.37;82.75;101200.88;5082444;28;19916;-64
2022/12/13 00:41:44;;;;;;;;;;;;;;;-4.40;82.77;101199.28;5085650;28;19916;-64
2022/12/13 00:44:10;;;;;;;;;;;;;;;-4.40;82.90;101195.84;5086223;28;19999;-63
2022/12/13 00:46:36;;;;;;;;;;;;;;;-4.40;82.94;101195.84;5087815;28;20010;-63
2022/12/13 00:49:01;;;;;;;;;;;;;;;-4.40;83.00;101195.84;5098554;28;20050;-64
2022/12/13 00:51:27;;;;;;;;;;;;;;;-4.40;83.08;101198.44;5090893;28;20026;-64
2022/12/13 00:53:52;;;;;;;;;;;;;;;-4.41;83.09;101196.75;5086318;28;19967;-64
2022/12/13 00:56:20;;;;;;;;;;;;;;;-4.43;83.18;101198.56;5081267;28;19955;-64
2022/12/13 00:58:46;;;;;;;;;;;;;;;-4.44;83.19;101202.06;5080498;28;19920;-64
2022/12/13 01:01:12;;;;;;;;;;;;;;;-4.44;83.24;101197.72;5085729;28;19916;-64
2022/12/13 01:03:38;;;;;;;;;;;;;;;-4.46;83.18;101193.53;5084362;28;19916;-63
2022/12/13 01:06:09;;;;;;;;;;;;;;;-4.51;83.19;101191.13;5082535;28;21616;-63
2022/12/13 01:08:34;;;;;;;;;;;;;;;-4.54;83.17;101188.69;5081796;28;19920;-63
2022/12/13 01:11:00;;;;;;;;;;;;;;;-4.57;83.11;101195.75;5084055;28;19941;-63
2022/12/13 01:13:25;;;;;;;;;;;;;;;-4.57;83.12;101193.16;5085481;28;19916;-64
2022/12/13 01:15:50;;;;;;;;;;;;;;;-4.59;83.20;101190.63;5087813;28;19916;-63
2022/12/13 01:18:17;;;;;;;;;;;;;;;-4.59;83.24;101189.78;5083273;28;19916;-63
2022/12/13 01:20:42;;;;;;;;;;;;;;;-4.61;83.29;101189.84;5085896;28;20535;-65
2022/12/13 01:23:07;;;;;;;;;;;;;;;-4.61;83.30;101189.00;5080301;28;19920;-64
2022/12/13 01:25:35;;;;;;;;;;;;;;;-4.61;83.22;101187.25;5083122;28;19923;-63
2022/12/13 01:28:01;;;;;;;;;;;;;;;-4.59;83.42;101189.78;5076833;28;19926;-64
2022/12/13 01:30:26;;;;;;;;;;;;;;;-4.62;83.58;101192.50;5074312;28;20030;-63
2022/12/13 01:32:51;;;;;;;;;;;;;;;-4.69;83.60;101190.16;5081108;28;19942;-65
2022/12/13 01:35:16;;;;;;;;;;;;;;;-4.73;83.41;101183.44;5083810;28;19967;-63
2022/12/13 01:37:41;;;;;;;;;;;;;;;-4.73;83.54;101183.44;5081446;28;20018;-64
2022/12/13 01:40:07;;;;;;;;;;;;;;;-4.72;83.60;101190.28;5087011;28;19916;-63
2022/12/13 01:42:32;;;;;;;;;;;;;;;-4.70;83.70;101190.22;5084074;28;19927;-64
2022/12/13 01:45:02;;;;;;;;;;;;;;;-4.69;83.79;101195.34;5083158;28;19916;-63
2022/12/13 01:47:27;;;;;;;;;;;;;;;-4.65;83.98;101190.88;5089650;28;19963;-63
2022/12/13 01:49:54;;;;;;;;;;;;;;;-4.64;84.04;101189.13;5085410;28;20042;-63
2022/12/13 01:52:20;;;;;;;;;;;;;;;-4.63;84.08;101185.63;5084568;28;20505;-64
2022/12/13 01:54:47;;;;;;;;;;;;;;;-4.64;83.98;101187.38;5085810;28;19944;-64
2022/12/13 01:57:14;;;;;;;;;;;;;;;-4.64;84.16;101189.13;5085186;28;19970;-64
2022/12/13 01:59:40;;;;;;;;;;;;;;;-4.66;84.15;101189.19;5091081;28;19916;-64
2022/12/13 02:02:06;;;;;;;;;;;;;;;-4.68;84.18;101197.03;5087405;28;20015;-64
2022/12/13 02:04:52;;;;;;;;;;;;;;;-4.69;83.98;101189.31;5082445;28;20062;-63
2022/12/13 02:07:19;;;;;;;;;;;;;;;-4.68;84.13;101189.25;5076527;28;19916;-64
2022/12/13 02:09:45;;;;;;;;;;;;;;;-4.68;84.03;101186.66;5080511;28;20407;-64
2022/12/13 02:12:11;;;;;;;;;;;;;;;-4.67;84.03;101187.50;5080216;28;19927;-63
2022/12/13 02:14:39;;;;;;;;;;;;;;;-4.68;84.10;101186.66;5084316;28;19916;-64
2022/12/13 02:17:07;;;;;;;;;;;;;;;-4.69;84.15;101184.13;5078424;28;19912;-64
2022/12/13 02:19:41;;;;;;;;;;;;;;;-4.72;83.95;101185.09;5086622;28;19966;-64
2022/12/13 02:22:12;;;;;;;;;;;;;;;-4.77;84.15;101189.66;5088685;28;19913;-64
2022/12/13 02:24:51;;;;;;;;;;;;;;;-4.80;83.99;101182.00;5087249;28;19916;-63
2022/12/13 02:27:41;;;;;;;;;;;;;;;-4.79;83.98;101181.09;5081318;28;20331;-63
2022/12/13 02:30:22;;;;;;;;;;;;;;;-4.79;84.09;101183.69;5085736;28;19912;-64
2022/12/13 02:32:56;;;;;;;;;;;;;;;-4.78;84.10;101187.97;5086780;28;19920;-64
2022/12/13 02:35:35;;;;;;;;;;;;;;;-4.82;83.96;101183.81;5096680;28;19923;-63
2022/12/13 02:38:06;;;;;;;;;;;;;;;-4.84;83.85;101180.47;5082998;28;19923;-63
2022/12/13 02:40:36;;;;;;;;;;;;;;;-4.87;83.93;101182.34;5084251;28;19965;-63
2022/12/13 02:43:01;;;;;;;;;;;;;;;-4.91;83.87;101181.63;5083631;28;19912;-63
2022/12/13 02:45:56;;;;;;;;;;;;;;;-4.92;83.94;101181.66;5080904;28;19931;-63
2022/12/13 02:48:24;;;;;;;;;;;;;;;-4.94;83.95;101181.72;5079727;28;19916;-63
2022/12/13 02:50:50;;;;;;;;;;;;;;;-4.94;83.98;101173.13;5080288;28;19916;-64
2022/12/13 02:53:16;;;;;;;;;;;;;;;-4.97;83.99;101168.91;5083538;28;19920;-64
2022/12/13 02:55:41;;;;;;;;;;;;;;;-4.99;83.92;101166.38;5086028;28;19923;-63
2022/12/13 02:58:10;;;;;;;;;;;;;;;-5.03;84.03;101164.00;5083468;28;19916;-63
2022/12/13 03:00:50;;;;;;;;;;;;;;;-5.06;83.96;101161.53;5084652;28;19916;-63
2022/12/13 03:03:38;;;;;;;;;;;;;;;-5.09;84.10;101162.50;5078319;28;19916;-63
2022/12/13 03:06:29;;;;;;;;;;;;;;;-5.09;84.16;101154.72;5037272;28;19924;-63
2022/12/13 03:09:06;;;;;;;;;;;;;;;-5.06;84.09;101154.59;5077580;28;19942;-63
2022/12/13 03:14:21;;;;;;;;;;;;;;;-5.01;84.21;101155.25;5086965;28;19962;-64
2022/12/13 03:16:51;;;;;;;;;;;;;;;-5.00;84.04;101153.50;5089642;28;19916;-64
2022/12/13 03:19:17;;;;;;;;;;;;;;;-5.00;84.21;101149.16;5091791;28;20398;-63
2022/12/13 03:21:44;;;;;;;;;;;;;;;-5.01;84.19;101152.66;5089400;28;19923;-64
2022/12/13 03:24:09;;;;;;;;;;;;;;;-5.01;84.18;101157.84;5090190;28;20019;-63
2022/12/13 03:26:36;;;;;;;;;;;;;;;-5.01;84.17;101154.41;5085847;28;20538;-64
2022/12/13 03:29:01;;;;;;;;;;;;;;;-5.03;84.27;101164.84;5090929;28;20006;-66
2022/12/13 03:31:27;;;;;;;;;;;;;;;-5.05;84.26;101160.63;5090124;28;20007;-63
2022/12/13 03:33:52;;;;;;;;;;;;;;;-5.07;84.31;101158.09;5093051;28;20642;-63
2022/12/13 03:36:17;;;;;;;;;;;;;;;-5.05;84.31;101165.81;5089634;28;19912;-63
2022/12/13 03:38:43;;;;;;;;;;;;;;;-5.05;84.34;101166.66;5089023;28;19992;-65
2022/12/13 03:41:11;;;;;;;;;;;;;;;-5.05;84.18;101160.63;5087964;28;19918;-66
2022/12/13 03:43:37;;;;;;;;;;;;;;;-5.05;84.35;101166.66;5083427;28;20083;-63
2022/12/13 03:46:02;;;;;;;;;;;;;;;-5.06;84.36;101164.13;5089127;28;19952;-63
2022/12/13 03:48:28;;;;;;;;;;;;;;;-5.08;84.29;101156.41;5082369;28;20000;-63
2022/12/13 03:50:53;;;;;;;;;;;;;;;-5.04;84.32;101149.34;5091528;28;19927;-64
2022/12/13 03:53:19;;;;;;;;;;;;;;;-5.05;84.58;101155.44;5086396;28;19920;-64
2022/12/13 03:55:44;;;;;;;;;;;;;;;-5.09;84.46;101149.56;5087245;28;20360;-63
2022/12/13 03:58:09;;;;;;;;;;;;;;;-5.13;84.42;101147.16;5090185;28;19916;-64
2022/12/13 04:00:34;;;;;;;;;;;;;;;-5.16;84.40;101150.72;5085388;28;19985;-63
2022/12/13 04:02:59;;;;;;;;;;;;;;;-5.18;84.52;101157.72;5091295;28;19920;-63
2022/12/13 04:05:25;;;;;;;;;;;;;;;-5.18;84.48;101154.28;5083370;28;19935;-63
2022/12/13 04:07:50;;;;;;;;;;;;;;;-5.19;84.51;101148.25;5078747;28;19917;-63
2022/12/13 04:10:15;;;;;;;;;;;;;;;-5.18;84.46;101149.09;5089055;28;19912;-63
2022/12/13 04:15:25;;;;;;;;;;;;;;;-5.15;84.49;101151.56;5090753;28;19977;-64
2022/12/13 04:17:50;;;;;;;;;;;;;;;-5.22;84.41;101131.97;5084750;28;19916;-64
2022/12/13 04:20:15;;;;;;;;;;;;;;;-5.18;84.53;101143.94;5087262;28;19916;-63
2022/12/13 04:22:40;;;;;;;;;;;;;;;-5.19;84.58;101145.66;5087466;28;19912;-65
2022/12/13 04:25:06;;;;;;;;;;;;;;;-5.21;84.71;101138.84;5088578;28;19961;-63
2022/12/13 04:27:31;;;;;;;;;;;;;;;-5.21;84.68;101144.88;5086156;28;20484;-63
2022/12/13 04:29:56;;;;;;;;;;;;;;;-5.20;84.68;101133.63;5084229;28;20434;-64
2022/12/13 04:32:21;;;;;;;;;;;;;;;-5.20;84.75;101135.38;5085956;28;19920;-64
2022/12/13 04:34:46;;;;;;;;;;;;;;;-5.17;84.80;101135.25;5076119;28;20368;-64
2022/12/13 04:37:12;;;;;;;;;;;;;;;-5.16;84.95;101142.13;5083433;28;20171;-63
2022/12/13 04:39:37;;;;;;;;;;;;;;;-5.14;84.83;101133.38;5081300;28;19913;-63
2022/12/13 04:42:03;;;;;;;;;;;;;;;-5.13;84.99;101131.63;5096896;28;19916;-63
2022/12/13 04:44:28;;;;;;;;;;;;;;;-5.12;84.90;101143.66;5090496;28;19923;-64
2022/12/13 04:46:54;;;;;;;;;;;;;;;-5.12;85.05;101123.78;5090755;28;19920;-63
2022/12/13 04:49:19;;;;;;;;;;;;;;;-5.11;84.95;101125.47;5088659;28;20375;-63
2022/12/13 04:51:44;;;;;;;;;;;;;;;-5.11;85.15;101135.84;5085874;28;20015;-63
2022/12/13 04:54:09;;;;;;;;;;;;;;;-5.09;85.12;101130.59;5088846;28;19916;-63
2022/12/13 04:56:34;;;;;;;;;;;;;;;-5.09;85.06;101125.41;5087147;28;19912;-63
2022/12/13 04:59:00;;;;;;;;;;;;;;;-5.08;85.06;101127.09;5086261;28;19922;-64
2022/12/13 05:01:25;;;;;;;;;;;;;;;-5.08;85.13;101134.84;5078544;28;19916;-64
2022/12/13 05:03:50;;;;;;;;;;;;;;;-5.08;85.13;101129.69;5078445;28;19935;-63
2022/12/13 05:06:15;;;;;;;;;;;;;;;-5.08;85.01;101135.69;5089968;28;19985;-63
2022/12/13 05:08:40;;;;;;;;;;;;;;;-5.07;85.11;101131.38;5076097;28;19920;-63
2022/12/13 05:11:06;;;;;;;;;;;;;;;-5.08;85.13;101132.28;5086733;28;20011;-63
2022/12/13 05:13:32;;;;;;;;;;;;;;;-5.10;85.13;101129.75;5087823;28;19920;-63
2022/12/13 05:15:58;;;;;;;;;;;;;;;-5.14;85.09;101122.19;5086894;28;19912;-66
2022/12/13 05:18:24;;;;;;;;;;;;;;;-5.17;85.08;101122.31;5083121;28;19999;-64
2022/12/13 05:20:52;;;;;;;;;;;;;;;-5.17;85.08;101122.31;5089572;28;20003;-64
2022/12/13 05:23:21;;;;;;;;;;;;;;;-5.18;85.09;101124.06;5081030;28;19931;-64
2022/12/13 05:25:46;;;;;;;;;;;;;;;-5.18;85.12;101112.84;5085857;28;19924;-63
2022/12/13 05:28:11;;;;;;;;;;;;;;;-5.19;85.19;101108.59;5086439;28;19916;-63
2022/12/13 05:30:37;;;;;;;;;;;;;;;-5.20;85.32;101112.94;5080330;28;20307;-63
2022/12/13 05:33:02;;;;;;;;;;;;;;;-5.24;85.22;101106.16;5080215;28;19955;-64
2022/12/13 05:35:27;;;;;;;;;;;;;;;-5.25;85.08;101109.66;5083200;28;19916;-64
2022/12/13 05:37:53;;;;;;;;;;;;;;;-5.23;85.22;101109.59;5083800;28;19930;-63
2022/12/13 05:40:18;;;;;;;;;;;;;;;-5.24;85.43;101103.56;5082719;28;19917;-64
2022/12/13 05:42:43;;;;;;;;;;;;;;;-5.25;85.47;101098.47;5083368;28;19999;-66
2022/12/13 05:45:08;;;;;;;;;;;;;;;-5.25;85.56;101095.88;5085463;28;20311;-63
2022/12/13 05:47:34;;;;;;;;;;;;;;;-5.24;85.78;101094.97;5082416;28;20303;-65
2022/12/13 05:49:59;;;;;;;;;;;;;;;-5.24;85.80;101098.41;5085019;28;19981;-63
2022/12/13 05:52:24;;;;;;;;;;;;;;;-5.21;85.82;101098.28;5092900;28;20515;-65
2022/12/13 05:54:53;;;;;;;;;;;;;;;-5.19;86.10;101096.50;5085533;28;19916;-63
2022/12/13 05:57:18;;;;;;;;;;;;;;;-5.15;86.17;101094.59;5087504;28;19951;-64
2022/12/13 05:59:43;;;;;;;;;;;;;;;-5.13;86.35;101090.22;5087488;28;19944;-63
2022/12/13 06:02:08;;;;;;;;;;;;;;;-5.09;86.43;101089.16;5087495;28;20390;-63
2022/12/13 06:04:34;;;;;;;;;;;;;;;-5.08;86.36;101091.69;5081379;28;19917;-63
2022/12/13 06:06:59;;;;;;;;;;;;;;;-5.07;86.56;101097.72;5083349;28;20372;-64
2022/12/13 06:09:24;;;;;;;;;;;;;;;-5.04;86.67;101101.00;5080433;28;19912;-63
2022/12/13 06:11:49;;;;;;;;;;;;;;;-5.02;86.71;101095.75;5087684;28;20541;-63
2022/12/13 06:14:15;;;;;;;;;;;;;;;-4.99;86.61;101091.28;5085808;28;20343;-64
2022/12/13 06:16:40;;;;;;;;;;;;;;;-4.99;86.77;101099.06;5080712;28;19924;-63
2022/12/13 06:19:05;;;;;;;;;;;;;;;-4.98;86.54;101099.91;5080312;28;19927;-63
2022/12/13 06:21:31;;;;;;;;;;;;;;;-4.98;86.61;101110.25;5081360;28;19912;-63
2022/12/13 06:23:56;;;;;;;;;;;;;;;-4.99;86.56;101109.41;5083708;28;19976;-65
2022/12/13 06:26:21;;;;;;;;;;;;;;;-5.01;86.56;101100.88;5082162;28;19924;-63
2022/12/13 06:28:46;;;;;;;;;;;;;;;-5.07;86.51;101106.31;5083671;28;20394;-64
2022/12/13 06:31:12;;;;;;;;;;;;;;;-5.15;86.20;101108.41;5081494;28;19920;-64
2022/12/13 06:33:37;;;;;;;;;;;;;;;-5.23;86.23;101099.25;5083715;28;20241;-64
2022/12/13 06:36:03;;;;;;;;;;;;;;;-5.30;86.12;101102.09;5079794;28;19951;-64
2022/12/13 06:38:30;;;;;;;;;;;;;;;-5.36;86.01;101112.69;5084189;28;20011;-63
2022/12/13 06:41:04;;;;;;;;;;;;;;;-5.42;85.97;101109.53;5082073;28;20185;-64
2022/12/13 06:43:29;;;;;;;;;;;;;;;-5.49;85.99;101110.66;5083156;28;19917;-63
2022/12/13 06:45:54;;;;;;;;;;;;;;;-5.56;85.98;101104.91;5086653;28;19916;-63
2022/12/13 06:48:20;;;;;;;;;;;;;;;-5.59;85.85;101105.03;5087191;28;21588;-63
2022/12/13 06:50:45;;;;;;;;;;;;;;;-5.61;85.77;101105.09;5088112;28;19924;-63
2022/12/13 06:53:10;;;;;;;;;;;;;;;-5.69;85.88;101090.78;5087600;28;19955;-64
2022/12/13 06:55:35;;;;;;;;;;;;;;;-5.63;85.77;101101.72;5087481;28;20019;-64
2022/12/13 06:58:00;;;;;;;;;;;;;;;-5.61;85.99;101104.25;5095035;28;19939;-65
2022/12/13 07:00:25;;;;;;;;;;;;;;;-5.59;85.91;101102.44;5084992;28;20003;-64
2022/12/13 07:02:52;;;;;;;;;;;;;;;-5.58;85.88;101105.88;5085556;28;19923;-64
2022/12/13 07:05:17;;;;;;;;;;;;;;;-5.57;86.05;101103.22;5083524;28;19932;-63
2022/12/13 07:07:43;;;;;;;;;;;;;;;-5.56;85.90;101099.72;5083142;28;19927;-63
2022/12/13 07:10:08;;;;;;;;;;;;;;;-5.55;86.12;101105.75;5082739;28;19916;-64
2022/12/13 07:12:33;;;;;;;;;;;;;;;-5.56;86.18;101115.25;5084427;28;19920;-63
2022/12/13 07:14:59;;;;;;;;;;;;;;;-5.55;86.41;101104.00;5089961;28;19922;-64
2022/12/13 07:17:24;;;;;;;;;;;;;;;-5.54;86.45;101099.66;5092223;28;19912;-63
2022/12/13 07:19:49;;;;;;;;;;;;;;;-5.51;86.69;101097.78;5089502;28;19918;-63
2022/12/13 07:22:14;;;;;;;;;;;;;;;-5.51;86.65;101102.97;5088039;28;19986;-65
2022/12/13 07:24:39;;;;;;;;;;;;;;;-5.47;86.72;101109.72;5088568;28;19932;-63
2022/12/13 07:27:04;;;;;;;;;;;;;;;-5.46;86.78;101100.22;5085139;28;20269;-64
2022/12/13 07:29:30;;;;;;;;;;;;;;;-5.44;86.93;101093.22;5082395;28;19920;-63
2022/12/13 07:31:55;;;;;;;;;;;;;;;-5.41;87.26;101104.28;5076777;28;20690;-63
2022/12/13 07:34:20;;;;;;;;;;;;;;;-5.38;87.30;101111.94;5078514;28;19922;-64
2022/12/13 07:36:47;;;;;;;;;;;;;;;-5.37;87.46;101105.84;5085284;28;19916;-63
2022/12/13 07:39:12;;;;;;;;;;;;;;;-5.35;87.48;101104.03;5086046;28;19955;-64
2022/12/13 07:41:38;;;;;;;;;;;;;;;-5.33;87.50;101101.38;5082787;28;19963;-63
2022/12/13 07:44:03;;;;;;;;;;;;;;;-5.30;87.64;101106.44;5086746;28;19932;-64
2022/12/13 07:46:28;;;;;;;;;;;;;;;-5.28;87.87;101106.38;5087073;28;19973;-63
2022/12/13 07:48:54;;;;;;;;;;;;;;;-5.25;88.13;101103.63;5090959;28;20392;-63
2022/12/13 07:51:19;;;;;;;;;;;;;;;-5.20;88.08;101112.09;5091036;28;19923;-63
2022/12/13 07:53:44;;;;;;;;;;;;;;;-5.19;88.35;101109.44;5081861;28;20784;-63
2022/12/13 07:56:10;;;;;;;;;;;;;;;-5.16;88.32;101113.63;5082066;28;19924;-63
2022/12/13 07:58:35;;;;;;;;;;;;;;;-5.16;88.53;101116.22;5086446;28;19928;-63
2022/12/13 08:01:02;;;;;;;;;;;;;;;-5.14;88.80;101119.59;5083901;28;19920;-63
2022/12/13 08:03:29;;;;;;;;;;;;;;;-5.11;88.78;101119.47;5083492;28;21282;-63
2022/12/13 08:06:02;;;;;;;;;;;;;;;-5.06;88.83;101113.19;5080795;28;19917;-63
2022/12/13 08:08:27;;;;;;;;;;;;;;;-5.05;88.91;101116.59;5082336;28;19916;-63
2022/12/13 08:10:53;;;;;;;;;;;;;;;-5.01;89.04;101120.75;5081704;28;19924;-63
2022/12/13 08:13:18;;;;;;;;;;;;;;;-4.99;89.14;101118.94;5084143;28;19927;-64
2022/12/13 08:15:43;;;;;;;;;;;;;;;-4.95;89.13;101112.72;5084156;28;20015;-63
2022/12/13 08:18:08;;;;;;;;;;;;;;;-4.93;89.35;101116.06;5084756;28;19916;-63
2022/12/13 08:20:33;;;;;;;;;;;;;;;-4.91;89.36;101122.06;5087419;28;20383;-63
2022/12/13 08:22:59;;;;;;;;;;;;;;;-4.88;89.31;101115.91;5090499;28;19912;-63
2022/12/13 08:25:24;;;;;;;;;;;;;;;-4.87;89.43;101121.00;5090712;28;20002;-64
2022/12/13 08:27:50;;;;;;;;;;;;;;;-4.82;89.51;101126.00;5090148;28;20391;-63
2022/12/13 08:30:15;;;;;;;;;;;;;;;-4.77;89.49;101121.47;5087517;28;19916;-63
2022/12/13 08:32:40;;;;;;;;;;;;;;;-4.72;89.40;101128.13;5090371;28;19920;-63
2022/12/13 08:35:06;;;;;;;;;;;;;;;-4.69;89.69;101122.78;5087942;28;19923;-63
2022/12/13 08:37:31;;;;;;;;;;;;;;;-4.63;89.75;101118.25;5087497;28;20413;-64
2022/12/13 08:39:56;;;;;;;;;;;;;;;-4.58;89.63;101119.75;5078139;28;20375;-63
2022/12/13 08:42:23;;;;;;;;;;;;;;;-4.53;89.67;101122.13;5090887;28;19912;-63
2022/12/13 08:44:49;;;;;;;;;;;;;;;-4.50;89.73;101117.66;5085562;28;19924;-63
2022/12/13 08:47:15;;;;;;;;;;;;;;;-4.47;89.82;101125.28;5083084;28;19976;-63
2022/12/13 08:49:40;;;;;;;;;;;;;;;-4.41;90.01;101130.19;5079313;28;19948;-64
2022/12/13 08:52:05;;;;;;;;;;;;;;;-4.34;90.16;101130.75;5088808;28;19945;-63
2022/12/13 08:54:33;;;;;;;;;;;;;;;-4.24;90.09;101139.84;5086597;28;20318;-64
2022/12/13 08:56:58;;;;;;;;;;;;;;;-4.17;90.14;101149.00;5087360;28;19919;-63
2022/12/13 08:59:24;;;;;;;;;;;;;;;-4.10;90.26;101147.81;5080205;28;20449;-63
2022/12/13 09:01:50;;;;;;;;;;;;;;;-3.98;90.33;101146.44;5085791;28;19919;-64
2022/12/13 09:04:15;;;;;;;;;;;;;;;-3.90;90.43;101146.06;5086930;28;19928;-63
2022/12/13 09:06:41;;;;;;;;;;;;;;;-3.81;90.41;101149.06;5081946;28;20411;-64
2022/12/13 09:09:06;;;;;;;;;;;;;;;-3.72;90.50;101136.59;5082277;28;19918;-63
2022/12/13 09:11:31;;;;;;;;;;;;;;;-3.66;90.51;101137.13;5089538;28;20384;-64
2022/12/13 09:13:57;;;;;;;;;;;;;;;-3.62;90.35;101133.47;5081173;28;19928;-63
2022/12/13 09:16:22;;;;;;;;;;;;;;;-3.60;90.30;101134.25;5086589;28;19912;-64
2022/12/13 09:18:48;;;;;;;;;;;;;;;-3.54;90.15;101133.09;5084928;28;19926;-63
2022/12/13 09:21:14;;;;;;;;;;;;;;;-3.49;89.94;101137.16;5082564;28;19926;-63
2022/12/13 09:23:40;;;;;;;;;;;;;;;-3.40;90.02;101140.25;5082412;28;19970;-63
2022/12/13 09:26:06;;;;;;;;;;;;;;;-3.33;90.02;101144.22;5088581;28;20431;-63
2022/12/13 09:28:31;;;;;;;;;;;;;;;-3.31;89.95;101145.81;5083972;28;19999;-63
2022/12/13 09:30:57;;;;;;;;;;;;;;;-3.27;89.79;101149.94;5083759;28;20007;-64
2022/12/13 09:33:22;;;;;;;;;;;;;;;-3.24;89.72;101151.56;5085186;28;19920;-64
2022/12/13 09:35:47;;;;;;;;;;;;;;;-3.17;89.71;101140.81;5084638;28;19922;-63
2022/12/13 09:38:13;;;;;;;;;;;;;;;-3.10;89.76;101149.13;5079966;28;19916;-64
2022/12/13 09:40:39;;;;;;;;;;;;;;;-3.09;89.50;101147.38;5085061;28;19954;-64
2022/12/13 09:43:05;;;;;;;;;;;;;;;-3.06;89.53;101157.63;5081293;28;19916;-63
2022/12/13 09:45:31;;;;;;;;;;;;;;;-3.01;89.44;101153.03;5084480;28;19912;-64
2022/12/13 09:47:57;;;;;;;;;;;;;;;-2.97;89.55;101150.19;5087062;28;19912;-63
2022/12/13 09:50:26;;;;;;;;;;;;;;;-2.90;89.65;101154.16;5084029;28;20436;-64
2022/12/13 09:52:51;;;;;;;;;;;;;;;-2.85;89.61;101143.56;5085055;28;19961;-63
2022/12/13 09:55:31;;;;;;;;;;;;;;;-2.85;89.46;101135.75;5077799;28;19920;-63
2022/12/13 09:57:57;;;;;;;;;;;;;;;-2.84;89.28;101130.50;5084460;28;19931;-63
2022/12/13 10:00:24;;;;;;;;;;;;;;;-2.82;89.16;101128.66;5083070;28;20364;-64
2022/12/13 10:02:56;;;;;;;;;;;;;;;-2.78;89.31;101129.34;5081527;28;19920;-64
2022/12/13 10:05:30;;;;;;;;;;;;;;;-2.72;89.17;101122.97;5083007;28;19917;-63
2022/12/13 10:07:57;;;;;;;;;;;;;;;-2.67;89.21;101128.78;5086424;28;19916;-64
2022/12/13 10:10:23;;;;;;;;;;;;;;;-2.68;89.20;101120.13;5087100;28;20057;-64
2022/12/13 10:13:02;;;;;;;;;;;;;;;-2.66;88.96;101127.84;5083862;28;20432;-64
2022/12/13 10:15:29;;;;;;;;;;;;;;;-2.59;88.88;101121.44;5081840;28;19917;-63
2022/12/13 10:17:55;;;;;;;;;;;;;;;-2.56;88.93;101108.28;5080218;28;19927;-63
2022/12/13 10:20:20;;;;;;;;;;;;;;;-2.54;88.89;101111.63;5080652;28;19924;-63
2022/12/13 10:22:46;;;;;;;;;;;;;;;-2.55;88.77;101102.16;5084867;28;19927;-63
2022/12/13 10:25:12;;;;;;;;;;;;;;;-2.55;88.58;101108.19;5090862;28;19916;-63
2022/12/13 10:27:41;;;;;;;;;;;;;;;-2.52;88.68;101110.63;5079419;28;19924;-63
2022/12/13 10:30:12;;;;;;;;;;;;;;;-2.50;88.56;101094.94;5076734;28;19916;-65
2022/12/13 10:32:53;;;;;;;;;;;;;;;-2.47;88.49;101088.75;5075461;28;20314;-63
2022/12/13 10:35:33;;;;;;;;;;;;;;;-2.48;88.49;101087.91;5078080;28;20451;-64
2022/12/13 10:38:18;;;;;;;;;;;;;;;-2.43;88.66;101091.09;5079397;28;19923;-63
2022/12/13 10:40:44;;;;;;;;;;;;;;;-2.37;88.74;101087.31;5080541;28;19912;-64
2022/12/13 10:43:31;;;;;;;;;;;;;;;-2.36;88.73;101078.59;5084895;28;20395;-64
2022/12/13 10:45:57;;;;;;;;;;;;;;;-2.34;88.60;101087.16;5084735;28;20086;-64
2022/12/13 10:48:42;;;;;;;;;;;;;;;-2.29;88.47;101078.22;5082817;28;20026;-63
2022/12/13 10:51:12;;;;;;;;;;;;;;;-2.24;88.58;101076.19;5075031;28;19912;-63
2022/12/13 10:53:39;;;;;;;;;;;;;;;-2.14;88.56;101073.09;5089113;28;19924;-64
2022/12/13 10:56:04;;;;;;;;;;;;;;;-2.09;88.52;101058.06;5078782;28;20015;-63
2022/12/13 10:58:33;;;;;;;;;;;;;;;-2.01;88.36;101055.91;5085140;28;20007;-63
2022/12/13 11:01:07;;;;;;;;;;;;;;;-1.94;88.47;101065.03;5084081;28;19912;-64
2022/12/13 11:03:33;;;;;;;;;;;;;;;-1.90;88.53;101056.97;5079322;28;19922;-63
2022/12/13 11:06:02;;;;;;;;;;;;;;;-1.83;88.54;101048.81;5077945;28;19916;-64
2022/12/13 11:08:29;;;;;;;;;;;;;;;-1.79;88.44;101045.94;5087971;28;19951;-63
2022/12/13 11:11:01;;;;;;;;;;;;;;;-1.71;88.45;101042.94;5080926;28;19955;-64
2022/12/13 11:13:37;;;;;;;;;;;;;;;-1.69;88.45;101031.50;5081882;28;19919;-64
2022/12/13 11:16:04;;;;;;;;;;;;;;;-1.64;88.36;101029.47;5081518;28;20383;-64
2022/12/13 11:18:33;;;;;;;;;;;;;;;-1.59;88.35;101030.03;5087626;28;19912;-63
2022/12/13 11:21:00;;;;;;;;;;;;;;;-1.55;88.26;101028.09;5081464;28;20359;-63
2022/12/13 11:23:32;;;;;;;;;;;;;;;-1.54;88.31;101034.97;5080823;28;19912;-63
2022/12/13 11:25:59;;;;;;;;;;;;;;;-1.53;88.13;101033.19;5084317;28;19922;-65
2022/12/13 11:28:30;;;;;;;;;;;;;;;-1.53;88.18;101028.00;5087243;28;19977;-64
2022/12/13 11:31:04;;;;;;;;;;;;;;;-1.51;87.82;101023.53;5082907;28;19915;-63
2022/12/13 11:33:48;;;;;;;;;;;;;;;-1.42;87.90;101028.22;5081120;28;19916;-64
2022/12/13 11:36:32;;;;;;;;;;;;;;;-1.35;87.81;101037.34;5082672;28;19920;-64
2022/12/13 11:39:02;;;;;;;;;;;;;;;-1.29;87.74;101035.22;5084376;28;20364;-64
2022/12/13 11:41:49;;;;;;;;;;;;;;;-1.22;87.85;101040.06;5083379;28;19923;-63
2022/12/13 11:44:18;;;;;;;;;;;;;;;-1.11;87.71;101033.31;5086688;28;20003;-63
2022/12/13 11:47:13;;;;;;;;;;;;;;;-1.01;87.76;101026.59;5083593;28;19912;-65
2022/12/13 11:49:39;;;;;;;;;;;;;;;-0.91;87.53;101026.88;5086911;28;19924;-63
2022/12/13 11:52:23;;;;;;;;;;;;;;;-0.82;87.35;101015.91;5086788;28;19924;-63
2022/12/13 11:54:51;;;;;;;;;;;;;;;-0.73;87.39;101015.34;5088887;28;19916;-64
2022/12/13 11:57:29;;;;;;;;;;;;;;;-0.65;86.96;101010.50;5088298;28;19916;-63
2022/12/13 12:00:00;;;;;;;;;;;;;;;-0.59;86.97;101008.44;5087446;28;19920;-64
2022/12/13 12:02:29;;;;;;;;;;;;;;;-0.56;86.73;101003.88;5082282;28;20293;-63
2022/12/13 12:04:55;;;;;;;;;;;;;;;-0.49;86.70;100999.97;5088645;28;19924;-63
2022/12/13 12:07:24;;;;;;;;;;;;;;;-0.34;86.70;100992.94;5084157;28;19923;-63
2022/12/13 12:09:57;;;;;;;;;;;;;;;-0.14;86.62;100989.06;5092559;28;19978;-64
2022/12/13 12:12:30;;;;;;;;;;;;;;;-0.02;86.64;100998.69;5088196;28;19920;-63
2022/12/13 12:15:11;;;;;;;;;;;;;;;0.05;86.33;100986.94;5085502;28;19920;-64
2022/12/13 12:17:36;;;;;;;;;;;;;;;0.12;86.30;100985.59;5086552;28;19916;-63
2022/12/13 12:20:02;;;;;;;;;;;;;;;0.14;86.25;100986.34;5084513;28;20001;-63
2022/12/13 12:22:27;;;;;;;;;;;;;;;0.15;86.17;100992.41;5085139;28;20383;-65
2022/12/13 12:24:55;;;;;;;;;;;;;;;0.18;85.71;100985.19;5085855;28;19916;-63
2022/12/13 12:27:23;;;;;;;;;;;;;;;0.23;85.44;100990.94;5084640;28;19962;-63
2022/12/13 12:29:48;;;;;;;;;;;;;;;0.22;84.82;100989.28;5079218;28;19924;-64
2022/12/13 12:32:27;;;;;;;;;;;;;;;0.19;84.61;100986.88;5084168;28;19916;-64
2022/12/13 12:34:52;;;;;;;;;;;;;;;0.16;84.46;100976.63;5087824;28;19920;-64
2022/12/13 12:37:27;;;;;;;;;;;;;;;0.15;84.33;100982.78;5088364;28;19923;-63
2022/12/13 12:39:52;;;;;;;;;;;;;;;0.14;84.11;100980.28;5079138;28;19916;-64
2022/12/13 12:42:28;;;;;;;;;;;;;;;0.09;84.02;100983.19;5085729;28;19965;-63
2022/12/13 12:45:02;;;;;;;;;;;;;;;0.02;83.81;100983.69;5084081;28;19916;-63